createdAt,value
2018-03-02T00:02:00.357Z,49.25
2018-03-02T00:04:26.951Z,49.00
2018-03-02T00:06:53.190Z,52.47
2018-03-02T00:09:19.440Z,48.30
2018-03-02T00:11:45.673Z,53.15
2018-03-02T00:14:11.932Z,49.22
2018-03-02T00:16:38.172Z,49.30
2018-03-02T00:19:04.465Z,42.25
2018-03-02T00:21:30.726Z,47.05
2018-03-02T00:23:56.949Z,51.92
2018-03-02T00:26:23.212Z,49.10
2018-03-02T00:28:49.482Z,48.70
2018-03-02T00:31:15.799Z,43.20
2018-03-02T00:33:42.009Z,51.05
2018-03-02T00:36:08.247Z,58.13
2018-03-02T00:38:34.458Z,49.30
2018-03-02T00:41:00.666Z,66.03
2018-03-02T00:43:26.906Z,55.08
2018-03-02T00:45:53.127Z,55.38
2018-03-02T00:48:19.328Z,46.63
2018-03-02T00:50:45.521Z,48.55
2018-03-02T00:53:11.776Z,49.10
2018-03-02T00:55:38.365Z,45.35
2018-03-02T00:58:04.582Z,49.92
2018-03-02T01:00:30.993Z,53.00
2018-03-02T01:02:57.246Z,45.58
2018-03-02T01:05:23.466Z,45.75
2018-03-02T01:07:49.678Z,54.97
2018-03-02T01:10:15.915Z,47.58
2018-03-02T01:12:42.317Z,51.63
2018-03-02T01:15:08.545Z,53.28
2018-03-02T01:17:34.830Z,56.75
2018-03-02T01:20:01.046Z,53.58
2018-03-02T01:22:27.269Z,45.17
2018-03-02T01:24:53.512Z,50.45
2018-03-02T01:27:19.721Z,49.97
2018-03-02T01:29:45.971Z,55.67
2018-03-02T01:32:12.219Z,52.62
2018-03-02T01:34:38.437Z,53.40
2018-03-02T01:37:04.635Z,53.33
2018-03-02T01:39:31.325Z,53.65
2018-03-02T01:41:57.892Z,47.53
2018-03-02T01:44:24.169Z,57.15
2018-03-02T01:46:50.400Z,52.65
2018-03-02T01:49:16.662Z,49.50
2018-03-02T01:51:48.783Z,50.67
2018-03-02T01:54:15.013Z,53.95
2018-03-02T01:56:41.276Z,51.03
2018-03-02T01:59:07.883Z,47.40
2018-03-02T02:01:34.139Z,47.50
2018-03-02T02:04:00.742Z,43.00
2018-03-02T02:06:26.956Z,43.95
2018-03-02T02:08:53.182Z,44.40
2018-03-02T02:11:19.403Z,47.67
2018-03-02T02:13:45.632Z,47.20
2018-03-02T02:16:11.842Z,43.78
2018-03-02T02:18:38.063Z,42.45
2018-03-02T02:21:04.298Z,48.45
2018-03-02T02:23:30.520Z,46.08
2018-03-02T02:25:56.796Z,50.35
2018-03-02T02:28:23.053Z,49.63
2018-03-02T02:30:49.646Z,50.03
2018-03-02T02:33:15.882Z,45.97
2018-03-02T02:35:42.153Z,47.50
2018-03-02T02:38:08.759Z,50.00
2018-03-02T02:40:35.071Z,46.10
2018-03-02T02:43:01.313Z,44.53
2018-03-02T02:45:27.512Z,54.00
2018-03-02T02:47:53.733Z,43.47
2018-03-02T02:50:19.942Z,48.47
2018-03-02T02:52:46.191Z,45.17
2018-03-02T02:55:12.415Z,45.83
2018-03-02T02:57:38.650Z,48.25
2018-03-02T03:00:04.885Z,49.35
2018-03-02T03:02:31.178Z,45.60
2018-03-02T03:04:57.424Z,48.55
2018-03-02T03:07:23.633Z,48.55
2018-03-02T03:09:49.859Z,51.05
2018-03-02T03:12:16.059Z,51.28
2018-03-02T03:14:42.297Z,46.63
2018-03-02T03:17:08.577Z,51.10
2018-03-02T03:19:34.834Z,51.10
2018-03-02T03:22:01.058Z,53.95
2018-03-02T03:24:27.263Z,52.72
2018-03-02T03:26:53.495Z,51.20
2018-03-02T03:29:19.739Z,48.60
2018-03-02T03:31:45.936Z,44.78
2018-03-02T03:34:12.123Z,53.17
2018-03-02T03:36:38.354Z,48.13
2018-03-02T03:39:04.598Z,54.00
2018-03-02T03:41:30.868Z,54.05
2018-03-02T03:43:57.095Z,52.42
2018-03-02T03:46:23.292Z,56.47
2018-03-02T03:48:49.493Z,55.80
2018-03-02T03:51:16.040Z,49.78
2018-03-02T03:53:42.602Z,56.00
2018-03-02T03:56:08.824Z,51.92
2018-03-02T03:58:35.050Z,52.58
2018-03-02T04:01:01.228Z,52.65
2018-03-02T04:03:27.442Z,52.70
2018-03-02T04:05:53.695Z,53.65
2018-03-02T04:08:20.314Z,49.65
2018-03-02T04:10:46.553Z,52.62
2018-03-02T04:13:12.782Z,48.97
2018-03-02T04:15:39.024Z,53.47
2018-03-02T04:18:05.237Z,60.75
2018-03-02T04:20:31.525Z,49.65
2018-03-02T04:22:57.766Z,58.25
2018-03-02T04:25:23.972Z,50.65
2018-03-02T04:27:50.183Z,52.20
2018-03-02T04:30:16.417Z,44.78
2018-03-02T04:32:42.664Z,52.90
2018-03-02T04:35:08.904Z,60.35
2018-03-02T04:37:35.150Z,60.72
2018-03-02T04:40:01.428Z,62.55
2018-03-02T04:42:27.650Z,50.78
2018-03-02T04:44:53.872Z,49.60
2018-03-02T04:47:20.078Z,51.67
2018-03-02T04:49:46.690Z,49.63
2018-03-02T04:52:12.936Z,52.20
2018-03-02T04:54:39.149Z,56.03
2018-03-02T04:57:05.351Z,54.60
2018-03-02T04:59:31.579Z,61.40
2018-03-02T05:01:57.829Z,50.60
2018-03-02T05:04:24.073Z,63.65
2018-03-02T05:06:50.337Z,55.40
2018-03-02T05:09:16.906Z,57.65
2018-03-02T05:11:43.131Z,60.25
2018-03-02T05:14:09.348Z,51.40
2018-03-02T05:16:35.584Z,55.05
2018-03-02T05:19:01.826Z,52.78
2018-03-02T05:21:28.085Z,52.08
2018-03-02T05:23:54.352Z,55.53
2018-03-02T05:26:20.634Z,54.88
2018-03-02T05:28:46.879Z,53.92
2018-03-02T05:31:13.462Z,61.63
2018-03-02T05:33:39.663Z,47.83
2018-03-02T05:36:05.873Z,63.60
2018-03-02T05:38:32.460Z,55.85
2018-03-02T05:40:58.689Z,57.95
2018-03-02T05:43:24.931Z,59.80
2018-03-02T05:45:51.214Z,54.10
2018-03-02T05:48:17.420Z,55.33
2018-03-02T05:50:44.039Z,57.20
2018-03-02T05:53:10.251Z,61.42
2018-03-02T05:55:36.472Z,54.42
2018-03-02T05:58:02.693Z,54.55
2018-03-02T06:00:28.898Z,59.25
2018-03-02T06:02:55.181Z,61.55
2018-03-02T06:05:21.431Z,58.80
2018-03-02T06:07:48.011Z,57.70
2018-03-02T06:10:14.680Z,55.30
2018-03-02T06:12:40.937Z,58.55
2018-03-02T06:15:07.515Z,68.00
2018-03-02T06:17:33.780Z,56.67
2018-03-02T06:19:59.971Z,64.10
2018-03-02T06:22:26.183Z,59.50
2018-03-02T06:24:52.769Z,60.85
2018-03-02T06:27:18.976Z,57.78
2018-03-02T06:29:45.203Z,54.17
2018-03-02T06:32:11.445Z,53.30
2018-03-02T06:34:37.668Z,69.50
2018-03-02T06:37:03.925Z,64.82
2018-03-02T06:39:30.134Z,60.67
2018-03-02T06:41:56.325Z,61.53
2018-03-02T06:44:22.611Z,57.70
2018-03-02T06:46:48.871Z,61.88
2018-03-02T06:49:15.082Z,64.37
2018-03-02T06:51:41.337Z,62.10
2018-03-02T06:54:07.608Z,65.90
2018-03-02T06:56:33.815Z,56.25
2018-03-02T06:59:00.074Z,58.42
2018-03-02T07:01:26.719Z,69.30
2018-03-02T07:03:53.097Z,64.07
2018-03-02T07:06:19.402Z,69.68
2018-03-02T07:08:45.650Z,62.72
2018-03-02T07:11:11.990Z,62.88
2018-03-02T07:13:38.244Z,58.83
2018-03-02T07:16:05.308Z,60.50
2018-03-02T07:18:31.997Z,71.55
2018-03-02T07:20:58.221Z,64.60
2018-03-02T07:23:24.435Z,59.90
2018-03-02T07:25:50.697Z,62.17
2018-03-02T07:28:17.179Z,63.05
2018-03-02T07:30:43.379Z,68.45
2018-03-02T07:33:09.610Z,56.65
2018-03-02T07:35:35.858Z,62.58
2018-03-02T07:38:02.116Z,63.38
2018-03-02T07:40:28.354Z,57.78
2018-03-02T07:42:54.612Z,53.97
2018-03-02T07:45:20.817Z,59.65
2018-03-02T07:47:47.077Z,61.72
2018-03-02T07:50:13.328Z,70.22
2018-03-02T07:52:39.947Z,56.00
2018-03-02T07:55:06.194Z,58.42
2018-03-02T07:57:32.781Z,60.97
2018-03-02T07:59:59.042Z,52.83
2018-03-02T08:02:25.257Z,64.15
2018-03-02T08:04:51.473Z,64.07
2018-03-02T08:07:17.729Z,65.45
2018-03-02T08:09:44.931Z,55.70
2018-03-02T08:12:11.177Z,58.65
2018-03-02T08:14:37.420Z,71.00
2018-03-02T08:17:03.656Z,61.63
2018-03-02T08:19:29.891Z,56.65
2018-03-02T08:21:56.163Z,59.90
2018-03-02T08:24:22.412Z,63.42
2018-03-02T08:26:48.705Z,62.65
2018-03-02T08:29:14.917Z,63.90
2018-03-02T08:31:41.429Z,67.18
2018-03-02T08:34:07.682Z,65.55
2018-03-02T08:36:33.923Z,63.03
2018-03-02T08:39:00.160Z,64.90
2018-03-02T08:41:26.382Z,62.78
2018-03-02T08:43:52.621Z,62.88
2018-03-02T08:46:18.890Z,56.33
2018-03-02T08:48:45.111Z,62.65
2018-03-02T08:51:11.371Z,65.18
2018-03-02T08:53:38.321Z,66.28
2018-03-02T08:56:04.541Z,59.05
2018-03-02T08:58:30.764Z,58.95
2018-03-02T09:00:57.294Z,65.68
2018-03-02T09:03:23.910Z,59.47
2018-03-02T09:05:50.137Z,68.95
2018-03-02T09:08:16.383Z,67.57
2018-03-02T09:10:42.618Z,71.10
2018-03-02T09:13:08.845Z,71.00
2018-03-02T09:15:35.105Z,66.40
2018-03-02T09:18:01.356Z,71.68
2018-03-02T09:20:27.615Z,62.88
2018-03-02T09:22:53.857Z,62.65
2018-03-02T09:25:20.095Z,66.28
2018-03-02T09:27:46.382Z,67.20
2018-03-02T09:30:12.677Z,71.87
2018-03-02T09:32:39.333Z,73.53
2018-03-02T09:35:05.577Z,68.75
2018-03-02T09:37:31.876Z,67.32
2018-03-02T09:39:58.144Z,64.80
2018-03-02T09:42:24.368Z,66.40
2018-03-02T09:44:50.635Z,67.28
2018-03-02T09:47:17.285Z,64.90
2018-03-02T09:49:43.944Z,66.95
2018-03-02T09:52:10.239Z,61.33
2018-03-02T09:54:36.879Z,68.22
2018-03-02T09:57:03.092Z,67.10
2018-03-02T09:59:29.349Z,69.28
2018-03-02T10:01:55.608Z,70.90
2018-03-02T10:04:21.879Z,64.62
2018-03-02T10:06:48.173Z,62.22
2018-03-02T10:09:14.458Z,67.68
2018-03-02T10:11:40.729Z,70.00
2018-03-02T10:14:07.014Z,70.47
2018-03-02T10:16:33.661Z,67.35
2018-03-02T10:19:00.277Z,57.00
2018-03-02T10:21:26.776Z,67.55
2018-03-02T10:23:52.989Z,66.68
2018-03-02T10:26:19.235Z,61.03
2018-03-02T10:28:45.753Z,65.70
2018-03-02T10:31:11.996Z,64.50
2018-03-02T10:33:38.204Z,63.28
2018-03-02T10:36:04.436Z,68.70
2018-03-02T10:38:30.696Z,66.15
2018-03-02T10:40:56.960Z,65.12
2018-03-02T10:43:23.530Z,59.05
2018-03-02T10:45:49.778Z,62.83
2018-03-02T10:48:16.006Z,59.22
2018-03-02T10:50:42.209Z,56.15
2018-03-02T10:53:08.456Z,64.12
2018-03-02T10:55:34.669Z,55.55
2018-03-02T10:58:00.910Z,56.53
2018-03-02T11:00:33.096Z,63.10
2018-03-02T11:02:59.324Z,59.60
2018-03-02T11:05:31.746Z,55.22
2018-03-02T11:07:58.041Z,58.70
2018-03-02T11:10:24.261Z,64.15
2018-03-02T11:12:50.529Z,60.08
2018-03-02T11:15:16.820Z,62.05
2018-03-02T11:17:43.063Z,60.47
2018-03-02T11:20:09.706Z,59.25
2018-03-02T11:22:36.323Z,59.80
2018-03-02T11:25:02.598Z,60.28
2018-03-02T11:27:28.834Z,54.20
2018-03-02T11:29:55.443Z,58.03
2018-03-02T11:32:22.033Z,56.22
2018-03-02T11:34:48.235Z,65.72
2018-03-02T11:37:14.474Z,59.60
2018-03-02T11:39:40.749Z,54.70
2018-03-02T11:42:07.366Z,61.15
2018-03-02T11:44:33.646Z,59.87
2018-03-02T11:46:59.917Z,54.13
2018-03-02T11:49:26.208Z,56.67
2018-03-02T11:51:52.474Z,58.20
2018-03-02T11:54:18.718Z,57.60
2018-03-02T11:56:44.930Z,58.95
2018-03-02T11:59:11.220Z,60.13
2018-03-02T12:01:37.459Z,57.97
2018-03-02T12:04:03.745Z,62.23
2018-03-02T12:06:29.997Z,58.60
2018-03-02T12:08:56.221Z,59.57
2018-03-02T12:11:22.474Z,58.87
2018-03-02T12:13:48.818Z,57.70
2018-03-02T12:16:15.045Z,57.20
2018-03-02T12:18:41.262Z,59.00
2018-03-02T12:21:07.542Z,59.73
2018-03-02T12:23:33.782Z,59.13
2018-03-02T12:26:00.069Z,60.33
2018-03-02T12:28:26.413Z,60.00
2018-03-02T12:30:52.704Z,53.97
2018-03-02T12:33:18.935Z,59.80
2018-03-02T12:35:45.164Z,56.80
2018-03-02T12:38:11.422Z,55.15
2018-03-02T12:40:38.103Z,56.63
2018-03-02T12:43:04.709Z,56.45
2018-03-02T12:45:30.974Z,58.65
2018-03-02T12:47:57.610Z,61.80
2018-03-02T12:50:23.835Z,60.63
2018-03-02T12:52:50.450Z,58.92
2018-03-02T12:55:16.771Z,56.65
2018-03-02T12:57:42.979Z,60.03
2018-03-02T13:00:09.263Z,63.63
2018-03-02T13:02:35.795Z,68.03
2018-03-02T13:05:02.398Z,66.97
2018-03-02T13:07:28.649Z,66.47
2018-03-02T13:09:54.953Z,71.07
2018-03-02T13:12:21.211Z,71.47
2018-03-02T13:14:47.492Z,65.28
2018-03-02T13:17:13.769Z,68.25
2018-03-02T13:19:40.810Z,69.55
2018-03-02T13:22:19.703Z,77.03
2018-03-02T13:24:45.992Z,62.92
2018-03-02T13:27:24.414Z,73.85
2018-03-02T13:29:50.692Z,70.87
2018-03-02T13:32:16.976Z,73.72
2018-03-02T13:34:55.512Z,71.60
2018-03-02T13:37:21.752Z,71.05
2018-03-02T13:40:00.129Z,78.55
2018-03-02T13:42:26.366Z,77.72
2018-03-02T13:44:52.618Z,71.45
2018-03-02T13:47:18.947Z,74.60
2018-03-02T13:49:57.463Z,66.53
2018-03-02T13:52:24.021Z,75.32
2018-03-02T13:54:50.261Z,75.97
2018-03-02T13:57:29.190Z,67.93
2018-03-02T13:59:55.887Z,72.22
2018-03-02T14:02:34.521Z,69.82
2018-03-02T14:05:01.672Z,71.47
2018-03-02T14:07:27.917Z,72.25
2018-03-02T14:09:54.320Z,69.40
2018-03-02T14:12:20.711Z,70.90
2018-03-02T14:14:47.004Z,70.90
2018-03-02T14:17:13.322Z,70.90
2018-03-02T14:19:39.729Z,76.65
2018-03-02T14:22:06.407Z,73.53
2018-03-02T14:24:32.635Z,80.25
2018-03-02T14:26:59.272Z,72.32
2018-03-02T14:29:26.236Z,80.65
2018-03-02T14:31:52.526Z,72.40
2018-03-02T14:34:18.762Z,72.70
2018-03-02T14:36:45.036Z,70.65
2018-03-02T14:39:11.292Z,72.05
2018-03-02T14:41:37.533Z,81.37
2018-03-02T14:44:03.887Z,74.80
2018-03-02T14:46:30.168Z,67.80
2018-03-02T14:48:56.402Z,72.28
2018-03-02T14:51:22.632Z,78.93
2018-03-02T14:53:48.829Z,79.75
2018-03-02T14:56:15.064Z,84.68
2018-03-02T14:58:41.382Z,78.43
2018-03-02T15:01:07.613Z,91.32
2018-03-02T15:03:33.854Z,85.60
2018-03-02T15:06:00.143Z,103.82
2018-03-02T15:08:26.373Z,77.70
2018-03-02T15:10:52.591Z,79.62
2018-03-02T15:13:18.941Z,80.53
2018-03-02T15:15:45.632Z,83.90
2018-03-02T15:18:11.869Z,84.40
2018-03-02T15:20:38.215Z,89.05
2018-03-02T15:23:04.507Z,89.13
2018-03-02T15:25:30.759Z,80.30
2018-03-02T15:27:57.002Z,88.90
2018-03-02T15:30:23.248Z,73.97
2018-03-02T15:32:49.527Z,79.93
2018-03-02T15:35:15.778Z,81.40
2018-03-02T15:37:42.013Z,79.43
2018-03-02T15:40:08.295Z,85.43
2018-03-02T15:42:34.557Z,90.53
2018-03-02T15:45:00.791Z,85.65
2018-03-02T15:47:27.053Z,81.53
2018-03-02T15:49:53.700Z,86.25
2018-03-02T15:52:20.341Z,80.10
2018-03-02T15:54:47.038Z,82.45
2018-03-02T15:57:13.277Z,84.72
2018-03-02T15:59:39.528Z,73.70
2018-03-02T16:02:05.765Z,78.93
2018-03-02T16:04:31.988Z,80.43
2018-03-02T16:06:58.215Z,83.05
2018-03-02T16:09:24.545Z,84.78
2018-03-02T16:11:51.185Z,83.45
2018-03-02T16:14:17.764Z,70.87
2018-03-02T16:16:43.969Z,78.62
2018-03-02T16:19:10.212Z,79.28
2018-03-02T16:21:36.439Z,78.82
2018-03-02T16:24:02.671Z,85.45
2018-03-02T16:26:29.018Z,83.90
2018-03-02T16:28:55.355Z,83.60
2018-03-02T16:31:22.036Z,83.85
2018-03-02T16:33:48.643Z,92.03
2018-03-02T16:36:14.864Z,87.05
2018-03-02T16:38:41.228Z,83.72
2018-03-02T16:41:07.475Z,79.90
2018-03-02T16:43:33.737Z,86.32
2018-03-02T16:46:00.102Z,91.35
2018-03-02T16:48:26.329Z,80.35
2018-03-02T16:50:52.660Z,83.72
2018-03-02T16:53:18.959Z,85.25
2018-03-02T16:55:46.030Z,87.80
2018-03-02T16:58:12.329Z,78.18
2018-03-02T17:00:38.831Z,86.25
2018-03-02T17:03:05.094Z,83.78
2018-03-02T17:05:31.382Z,76.35
2018-03-02T17:07:57.653Z,79.80
2018-03-02T17:10:23.875Z,78.18
2018-03-02T17:12:50.114Z,82.37
2018-03-02T17:15:16.428Z,78.03
2018-03-02T17:17:42.725Z,80.50
2018-03-02T17:20:08.989Z,78.35
2018-03-02T17:22:35.279Z,85.43
2018-03-02T17:25:01.912Z,84.35
2018-03-02T17:27:28.251Z,78.93
2018-03-02T17:29:54.535Z,79.78
2018-03-02T17:32:20.805Z,83.32
2018-03-02T17:34:47.109Z,88.22
2018-03-02T17:37:13.398Z,81.35
2018-03-02T17:39:39.647Z,81.55
2018-03-02T17:42:05.907Z,82.47
2018-03-02T17:44:32.526Z,90.30
2018-03-02T17:46:58.783Z,88.95
2018-03-02T17:49:25.398Z,83.40
2018-03-02T17:51:51.730Z,81.63
2018-03-02T17:54:18.049Z,84.53
2018-03-02T17:56:44.375Z,84.07
2018-03-02T17:59:10.591Z,121.43
2018-03-02T18:01:36.832Z,87.28
2018-03-02T18:04:03.584Z,92.12
2018-03-02T18:06:29.801Z,89.13
2018-03-02T18:08:56.059Z,86.68
2018-03-02T18:11:23.089Z,91.63
2018-03-02T18:13:49.324Z,83.60
2018-03-02T18:16:15.574Z,89.25
2018-03-02T18:18:41.868Z,94.07
2018-03-02T18:21:08.174Z,93.28
2018-03-02T18:23:34.399Z,90.35
2018-03-02T18:26:00.727Z,89.22
2018-03-02T18:28:26.977Z,85.00
2018-03-02T18:30:53.289Z,91.35
2018-03-02T18:33:19.592Z,91.87
2018-03-02T18:35:45.887Z,92.10
2018-03-02T18:38:12.129Z,88.82
2018-03-02T18:40:39.147Z,93.68
2018-03-02T18:43:05.429Z,95.12
2018-03-02T18:45:31.697Z,92.30
2018-03-02T18:47:57.920Z,92.28
2018-03-02T18:50:24.218Z,106.03
2018-03-02T18:52:50.484Z,93.93
2018-03-02T18:55:16.776Z,96.53
2018-03-02T18:57:43.045Z,96.25
2018-03-02T19:00:09.284Z,92.05
2018-03-02T19:02:35.934Z,99.28
2018-03-02T19:05:02.845Z,99.15
2018-03-02T19:07:29.098Z,91.78
2018-03-02T19:09:55.390Z,92.78
2018-03-02T19:12:22.018Z,90.55
2018-03-02T19:14:48.278Z,96.22
2018-03-02T19:17:15.354Z,88.80
2018-03-02T19:19:42.030Z,100.68
2018-03-02T19:22:08.249Z,107.35
2018-03-02T19:24:34.461Z,93.87
2018-03-02T19:27:01.140Z,104.80
2018-03-02T19:29:27.429Z,97.55
2018-03-02T19:31:53.697Z,98.32
2018-03-02T19:34:19.967Z,109.53
2018-03-02T19:36:46.583Z,100.28
2018-03-02T19:39:12.824Z,99.20
2018-03-02T19:41:39.202Z,105.55
2018-03-02T19:44:05.561Z,100.68
2018-03-02T19:46:38.810Z,98.65
2018-03-02T19:49:05.096Z,102.10
2018-03-02T19:51:31.402Z,104.75
2018-03-02T19:53:57.674Z,108.57
2018-03-02T19:56:23.989Z,113.95
2018-03-02T19:58:50.242Z,122.20
2018-03-02T20:01:16.938Z,107.35
2018-03-02T20:03:43.242Z,110.90
2018-03-02T20:06:09.524Z,98.00
2018-03-02T20:08:35.758Z,105.72
2018-03-02T20:11:02.044Z,103.95
2018-03-02T20:13:28.306Z,109.05
2018-03-02T20:15:54.539Z,110.80
2018-03-02T20:18:20.888Z,105.45
2018-03-02T20:20:47.599Z,101.82
2018-03-02T20:23:13.868Z,98.95
2018-03-02T20:25:40.185Z,102.47
2018-03-02T20:28:06.797Z,108.65
2018-03-02T20:30:33.086Z,97.80
2018-03-02T20:32:59.404Z,109.90
2018-03-02T20:35:25.633Z,107.20
2018-03-02T20:37:52.881Z,103.72
2018-03-02T20:40:19.146Z,101.30
2018-03-02T20:42:45.388Z,102.75
2018-03-02T20:45:11.689Z,101.45
2018-03-02T20:47:38.242Z,104.80
2018-03-02T20:50:04.547Z,111.68
2018-03-02T20:52:30.846Z,104.57
2018-03-02T20:54:57.292Z,102.05
2018-03-02T20:57:23.579Z,105.32
2018-03-02T20:59:49.837Z,104.05
2018-03-02T21:02:16.662Z,111.22
2018-03-02T21:04:43.234Z,110.50
2018-03-02T21:07:09.474Z,106.93
2018-03-02T21:09:35.725Z,99.20
2018-03-02T21:12:01.966Z,107.37
2018-03-02T21:14:28.202Z,102.95
2018-03-02T21:16:54.422Z,107.93
2018-03-02T21:19:20.716Z,103.72
2018-03-02T21:21:47.116Z,104.50
2018-03-02T21:24:13.801Z,104.95
2018-03-02T21:26:40.067Z,110.57
2018-03-02T21:29:06.299Z,107.25
2018-03-02T21:31:33.132Z,109.97
2018-03-02T21:33:59.400Z,102.07
2018-03-02T21:36:25.727Z,105.75
2018-03-02T21:38:52.030Z,113.85
2018-03-02T21:41:18.390Z,108.53
2018-03-02T21:43:44.757Z,99.62
2018-03-02T21:46:11.044Z,112.53
2018-03-02T21:48:37.399Z,106.10
2018-03-02T21:51:03.688Z,96.35
2018-03-02T21:53:30.332Z,102.65
2018-03-02T21:55:57.050Z,103.38
2018-03-02T21:58:23.846Z,95.15
2018-03-02T22:00:50.109Z,101.95
2018-03-02T22:03:16.353Z,106.40
2018-03-02T22:05:42.612Z,106.43
2018-03-02T22:08:08.871Z,100.85
2018-03-02T22:10:35.130Z,109.45
2018-03-02T22:13:01.360Z,96.25
2018-03-02T22:15:28.155Z,108.95
2018-03-02T22:17:54.439Z,102.18
2018-03-02T22:20:20.752Z,111.07
2018-03-02T22:22:47.137Z,105.45
2018-03-02T22:25:13.484Z,102.75
2018-03-02T22:27:39.755Z,105.25
2018-03-02T22:30:06.044Z,108.15
2018-03-02T22:32:32.282Z,105.97
2018-03-02T22:34:58.513Z,108.50
2018-03-02T22:37:24.786Z,103.90
2018-03-02T22:39:51.009Z,105.85
2018-03-02T22:42:17.292Z,111.95
2018-03-02T22:44:43.507Z,98.82
2018-03-02T22:47:09.698Z,107.07
2018-03-02T22:49:36.619Z,106.78
2018-03-02T22:52:02.876Z,113.68
2018-03-02T22:54:29.462Z,110.88
2018-03-02T22:56:55.783Z,104.65
2018-03-02T22:59:21.998Z,109.28
2018-03-02T23:01:48.286Z,107.07
2018-03-02T23:04:14.976Z,103.78
2018-03-02T23:06:41.228Z,106.12
2018-03-02T23:09:07.461Z,104.18
2018-03-02T23:11:33.720Z,102.20
2018-03-02T23:14:00.331Z,109.65
2018-03-02T23:16:26.545Z,116.03
2018-03-02T23:18:52.775Z,108.90
2018-03-02T23:21:19.026Z,110.53
2018-03-02T23:23:45.626Z,107.68
2018-03-02T23:26:11.878Z,115.65
2018-03-02T23:28:38.107Z,117.45
2018-03-02T23:31:04.395Z,110.28
2018-03-02T23:33:30.604Z,108.45
2018-03-02T23:35:56.861Z,113.68
2018-03-02T23:38:23.125Z,113.65
2018-03-02T23:40:49.367Z,102.80
2018-03-02T23:43:15.987Z,114.25
2018-03-02T23:45:42.235Z,111.30
2018-03-02T23:48:08.834Z,112.80
2018-03-02T23:50:35.067Z,112.57
2018-03-02T23:53:01.307Z,111.35
2018-03-02T23:55:27.534Z,104.95
2018-03-02T23:57:53.737Z,110.25
